Alt del Turabo, Puerto Rico
Current Conditions -  °F | °C
As of 11:56 PM on Friday 31 Oct 2014 (Local Time) from TJSJ Reporting Station
Clear Clear  
Wind Chill: 80°   Ceiling: Unl
Heat Index: 85°   Visibility: 10mi
Dew Point: 76°   Wind: 0mph
Humidity: 87%   Direction: NA
Pressure: 29.94"   Gusts: NA
Location:  18.2361°N, 66.0369°W
Report Text: TJSJ 010356Z 00000KT 10SM CLR 27/24 A2994 RMK AO2 SLP137 T02670244 403170261
Loading
Personal Weather Stations






























Interactive Weather Map
Tropical Storm Tracking
New forecast layout! Learn more

10-Day Weather Forecast

Advertisements
Track Severe Weather on mobile